Sunday, February 1, 2015, 8:11 AM EST

KLNS, Lancaster Airport

Location: Lititz, PA, United States Lat: 40.117
Local Time: 8:11 AM EST (13:11 GMT) Lon: -76.3
Time Zone: US/Eastern Elev: 403 ft

Show me the last for .
Show Decoded

2015-02-01 07:53 METAR KLNS 011253Z 00000KT 8SM OVC042 M06/M09 A3024 RMK AO2 SLP245 T10561094 =
2015-02-01 06:53 METAR KLNS 011153Z 00000KT 9SM OVC048 M06/M11 A3023 RMK AO2 SLP241 T10611111
                 11061 21100 55000 =
2015-02-01 04:53 METAR KLNS 010953Z AUTO 00000KT 10SM OVC045 M07/M12 A3023 RMK AO2 SLP241
                 T10721122 =
2015-02-01 03:53 METAR KLNS 010853Z AUTO 00000KT 10SM OVC048 M08/M13 A3023 RMK AO2 SLP241
                 T10781128 58002 =
2015-02-01 02:53 METAR KLNS 010753Z AUTO 00000KT 10SM OVC048 M10/M15 A3023 RMK AO2 SLP243
                 T11001150 =
2015-02-01 01:53 METAR KLNS 010653Z AUTO 00000KT 10SM CLR M08/M14 A3024 RMK AO2 SLP245 T10831144
                 =
2015-02-01 00:53 METAR KLNS 010553Z AUTO 00000KT 10SM CLR M09/M15 A3023 RMK AO2 SLP244 T10891150
                 11056 21094 50002 =
2015-01-31 23:53 METAR KLNS 010453Z AUTO 00000KT 10SM CLR M08/M15 A3024 RMK AO2 SLP246 T10831150
                 410391122 =
2015-01-31 22:53 METAR KLNS 010353Z AUTO 00000KT 10SM CLR M07/M15 A3023 RMK AO2 SLP243 T10721150
                 =
2015-01-31 21:53 METAR KLNS 010253Z 26004KT 10SM CLR M07/M15 A3023 RMK AO2 SLP242 T10671150 58004
                 =
2015-01-31 20:53 METAR KLNS 010153Z 26004KT 10SM CLR M07/M15 A3023 RMK AO2 SLP244 T10671150 =
2015-01-31 19:53 METAR KLNS 010053Z 28005KT 10SM CLR M06/M14 A3024 RMK AO2 SLP246 T10611144 =
2015-01-31 18:53 METAR KLNS 312353Z 26005KT 10SM CLR M06/M14 A3024 RMK AO2 SLP246 T10611139 11039
                 21067 53009 =
2015-01-31 17:53 METAR KLNS 312253Z 28008KT 10SM CLR M05/M14 A3022 RMK AO2 SLP241 T10501139 =
2015-01-31 16:53 METAR KLNS 312153Z 30009KT 10SM CLR M04/M14 A3021 RMK AO2 SLP236 T10441139 =
2015-01-31 15:53 METAR KLNS 312053Z 30014KT 10SM CLR M04/M14 A3021 RMK AO2 SLP237 T10441139 56009
                 =
2015-01-31 14:53 METAR KLNS 311953Z 29012KT 10SM CLR M04/M14 A3021 RMK AO2 SLP237 T10441139 =
2015-01-31 13:53 METAR KLNS 311853Z 29012KT 10SM CLR M05/M14 A3022 RMK AO2 SLP239 T10501139 =
2015-01-31 12:53 METAR KLNS 311753Z 31013KT 10SM CLR M06/M15 A3024 RMK AO2 SLP246 T10561150 11056
                 21122 58018 =
2015-01-31 11:53 METAR KLNS 311653Z 32015G22KT 10SM CLR M07/M16 A3026 RMK AO2 SLP255 T10671156 =
2015-01-31 10:53 METAR KLNS 311553Z 32013G22KT 10SM CLR M08/M17 A3029 RMK AO2 SLP264 T10781167 =
2015-01-31 09:53 METAR KLNS 311453Z 33016KT 10SM CLR M09/M17 A3029 RMK AO2 PK WND 33026/1414
                 SLP264 T10891172 51014 =
2015-01-31 08:53 METAR KLNS 311353Z 32017G22KT 10SM CLR M11/M18 A3028 RMK AO2 SLP260 T11061178 =

Support USWX by starting your Amazon purchase here.